»·PEaware :: AAY383 KLAS-KPHX

AAY383 :: KLAS-KPHX

FLIGHT INFORMATION

Flight Status: Arrived
Operator:
Allegiant Air
More flights by this operator :: More flights under this callsign
Pilot: David C. (16084)
Aircraft: AIRBUS A320
(A320)
More flights by this aircraft type
Origin: KLAS Harry Reid Intl
United States
Destination: KPHX Phoenix Sky Harbor Intl
United States
More flights between these airports :: More routes between these airports
Route: RASLR3 ZAYNE WOTRO BRUSR1
File this flight plan on PilotEdge
Remarks:
Altitude:
(Current/Filed)
27,000ft
Speed:
(Current/Filed)
492kts
Departed: 17-Sep-22 05:15 PM
Arrived: 17-Sep-22 06:01 PM
Distance/Time
Traveled:
222nm/0:46
Distance/Time
To Go:
Arrived

Flight Plot

Page will automatically refresh every two minutes.

Flight plan parsing failed; only flown route is shown


Map Options




Map Legend


Flown Route
Filed Route
Departure Airport
Arrival Airport
Navaid (VOR, NDB)
Fix

Horizontal Profiles

Position Reports

Time Latitude Longitude Heading Altitude Ground
Speed
17-Sep-22 16:38 36.085843 -115.154059 155 2188ft 0kts
17-Sep-22 16:39 36.085843 -115.154059 155 2188ft 0kts
17-Sep-22 16:40 36.085843 -115.154059 155 2188ft 0kts
17-Sep-22 16:41 36.085843 -115.154059 155 2188ft 0kts
17-Sep-22 16:42 36.085843 -115.154059 155 2188ft 0kts
17-Sep-22 16:43 36.085843 -115.154059 155 2188ft 0kts
17-Sep-22 16:44 36.085843 -115.154059 155 2188ft 0kts
17-Sep-22 16:45 36.085843 -115.154059 155 2188ft 0kts
17-Sep-22 16:46 36.085843 -115.154059 155 2188ft 0kts
17-Sep-22 16:47 36.085843 -115.154059 155 2188ft 0kts
17-Sep-22 16:48 36.085843 -115.154059 155 2188ft 0kts
17-Sep-22 16:49 36.085843 -115.154059 155 2188ft 0kts
17-Sep-22 16:50 36.085843 -115.154059 155 2188ft 0kts
17-Sep-22 16:51 36.085843 -115.154059 155 2188ft 0kts
17-Sep-22 16:52 36.085843 -115.154059 155 2188ft 0kts
17-Sep-22 16:53 36.085843 -115.154059 155 2188ft 0kts
17-Sep-22 16:54 36.085843 -115.154059 155 2188ft 0kts
17-Sep-22 16:55 36.085843 -115.154059 155 2188ft 0kts
17-Sep-22 16:56 36.085843 -115.154059 155 2188ft 0kts
17-Sep-22 16:57 36.085843 -115.154059 155 2188ft 0kts
17-Sep-22 16:58 36.085843 -115.154059 155 2188ft 0kts
17-Sep-22 16:59 36.085843 -115.154059 155 2188ft 0kts
17-Sep-22 17:00 36.085843 -115.154059 155 2188ft 0kts
17-Sep-22 17:01 36.085843 -115.154059 155 2188ft 0kts
17-Sep-22 17:02 36.085843 -115.154059 155 2188ft 0kts
17-Sep-22 17:03 36.085843 -115.154059 155 2188ft 0kts
17-Sep-22 17:04 36.085844 -115.154059 155 2188ft 0kts
17-Sep-22 17:05 36.086253 -115.154441 129 2188ft 2kts
17-Sep-22 17:06 36.086510 -115.155108 100 2188ft 2kts
17-Sep-22 17:07 36.086526 -115.155212 101 2188ft 0kts
17-Sep-22 17:08 36.086526 -115.155212 101 2188ft 0kts
17-Sep-22 17:09 36.086520 -115.155173 99 2188ft 1kts
17-Sep-22 17:10 36.087554 -115.154969 353 2188ft 8kts
17-Sep-22 17:11 36.089577 -115.155032 359 2188ft 10kts
17-Sep-22 17:12 36.093958 -115.153978 25 2188ft 22kts
17-Sep-22 17:13 36.097854 -115.152413 308 2188ft 0kts
17-Sep-22 17:14 36.093627 -115.156419 204 2188ft 95kts
17-Sep-22 17:15 36.052733 -115.180437 205 3624ft 195kts
17-Sep-22 17:16 35.995237 -115.213026 198 5405ft 260kts
17-Sep-22 17:17 35.924556 -115.209637 158 8603ft 262kts
17-Sep-22 17:18 35.879390 -115.136594 124 11339ft 288kts
17-Sep-22 17:19 35.847609 -115.033285 109 12423ft 357kts
17-Sep-22 17:20 35.817375 -114.908050 109 13384ft 398kts
17-Sep-22 17:21 35.786191 -114.779340 110 15688ft 395kts
17-Sep-22 17:22 35.754046 -114.647951 111 17413ft 406kts
17-Sep-22 17:23 35.720987 -114.513526 111 18772ft 415kts
17-Sep-22 17:24 35.670841 -114.390899 143 19240ft 399kts
17-Sep-22 17:25 35.586943 -114.302089 145 20807ft 405kts
17-Sep-22 17:26 35.500796 -114.211204 145 22225ft 413kts
17-Sep-22 17:27 35.412821 -114.118816 146 23516ft 422kts
17-Sep-22 17:28 35.324033 -114.022425 136 24694ft 439kts
17-Sep-22 17:29 35.278470 -113.877402 110 25696ft 475kts
17-Sep-22 17:30 35.245837 -113.719532 111 26618ft 484kts
17-Sep-22 17:31 35.213663 -113.556825 109 26941ft 506kts
17-Sep-22 17:32 35.181401 -113.386967 109 26942ft 516kts
17-Sep-22 17:33 35.121784 -113.234648 131 26956ft 492kts
17-Sep-22 17:34 35.045709 -113.096058 131 27011ft 491kts
17-Sep-22 17:35 34.969146 -112.957810 130 27012ft 493kts
17-Sep-22 17:37 34.892232 -112.819403 128 27028ft 497kts
17-Sep-22 17:38 34.813316 -112.677945 128 27061ft 498kts
17-Sep-22 17:39 34.736012 -112.539867 128 25515ft 495kts
17-Sep-22 17:40 34.642608 -112.421586 144 22260ft 478kts
17-Sep-22 17:41 34.547462 -112.328400 145 20529ft 404kts
17-Sep-22 17:42 34.466253 -112.249240 146 19861ft 351kts
17-Sep-22 17:43 34.380903 -112.213192 171 18494ft 320kts
17-Sep-22 17:44 34.295106 -112.190956 171 16949ft 311kts
17-Sep-22 17:45 34.211070 -112.169219 171 15319ft 306kts
17-Sep-22 17:46 34.129071 -112.148044 171 13815ft 297kts
17-Sep-22 17:47 34.051354 -112.140938 187 12810ft 273kts
17-Sep-22 17:48 33.976877 -112.149223 187 11521ft 267kts
17-Sep-22 17:49 33.903761 -112.157865 190 10227ft 262kts
17-Sep-22 17:50 33.832282 -112.173251 191 8978ft 259kts
17-Sep-22 17:51 33.762593 -112.187956 191 8137ft 245kts
17-Sep-22 17:52 33.697105 -112.201742 191 7518ft 236kts
17-Sep-22 17:53 33.632775 -112.215298 191 6725ft 232kts
17-Sep-22 17:54 33.574077 -112.227607 192 5852ft 196kts
17-Sep-22 17:55 33.518057 -112.239715 192 5022ft 205kts
17-Sep-22 17:56 33.465536 -112.247354 165 4253ft 186kts
17-Sep-22 17:57 33.441127 -112.195557 92 3844ft 195kts
17-Sep-22 17:58 33.440800 -112.137040 93 2902ft 155kts
17-Sep-22 17:58 33.440799 -112.094504 92 2249ft 151kts
17-Sep-22 18:00 33.440812 -112.036646 91 1338ft 148kts
17-Sep-22 18:01 33.440388 -112.004750 143 1140ft 13kts
17-Sep-22 18:02 33.439058 -112.004976 234 1140ft 12kts
17-Sep-22 18:03 33.437345 -112.007905 267 1140ft 9kts
17-Sep-22 18:03 33.437341 -112.008184 268 1140ft 0kts
17-Sep-22 18:04 33.437341 -112.008184 268 1140ft 0kts

Navigation Log

Ident Type
Flight plan parsing failed, navigation log unavailable